createdAt,value
2023-04-19T00:07:20.651Z,9.20
2023-04-19T00:17:23.985Z,9.30
2023-04-19T00:27:25.975Z,9.20
2023-04-19T00:37:29.249Z,9.00
2023-04-19T00:47:31.281Z,8.80
2023-04-19T00:57:35.209Z,8.80
2023-04-19T01:07:37.185Z,8.60
2023-04-19T01:17:40.680Z,8.40
2023-04-19T01:27:43.993Z,8.30
2023-04-19T01:37:45.932Z,8.40
2023-04-19T01:47:49.226Z,8.40
2023-04-19T01:57:52.247Z,8.30
2023-04-19T02:07:57.285Z,8.20
2023-04-19T02:17:59.243Z,8.30
2023-04-19T02:28:02.596Z,8.40
2023-04-19T02:38:05.068Z,8.40
2023-04-19T02:48:08.499Z,8.40
2023-04-19T02:58:10.431Z,8.50
2023-04-19T03:08:13.696Z,8.40
2023-04-19T03:18:15.616Z,8.40
2023-04-19T03:28:18.960Z,8.30
2023-04-19T03:38:20.894Z,8.20
2023-04-19T03:48:24.206Z,8.20
2023-04-19T03:58:26.108Z,8.20
2023-04-19T04:08:29.401Z,8.10
2023-04-19T04:18:31.325Z,8.10
2023-04-19T04:28:34.695Z,8.00
2023-04-19T04:38:36.608Z,7.90
2023-04-19T04:48:39.917Z,7.80
2023-04-19T04:58:41.840Z,7.80
2023-04-19T05:08:45.936Z,7.80
2023-04-19T05:18:47.858Z,7.90
2023-04-19T05:28:51.209Z,7.90
2023-04-19T05:38:53.110Z,8.00
2023-04-19T05:48:56.414Z,8.10
2023-04-19T05:58:58.740Z,8.30
2023-04-19T06:09:02.035Z,8.40
2023-04-19T06:19:03.973Z,8.50
2023-04-19T06:29:07.269Z,8.70
2023-04-19T06:39:09.209Z,8.90
2023-04-19T06:49:12.502Z,9.10
2023-04-19T06:59:15.821Z,9.30
2023-04-19T07:09:19.184Z,9.60
2023-04-19T07:19:21.205Z,9.70
2023-04-19T07:29:24.529Z,10.10
2023-04-19T07:39:26.440Z,10.60
2023-04-19T07:49:29.763Z,10.80
2023-04-19T07:59:31.691Z,11.00
2023-04-19T08:09:35.631Z,11.50
2023-04-19T08:19:37.588Z,12.30
2023-04-19T08:29:40.925Z,12.20
2023-04-19T08:39:42.859Z,12.00
2023-04-19T08:59:51.373Z,12.10
2023-04-19T09:10:09.612Z,12.10
2023-04-19T09:20:12.063Z,12.30
2023-04-19T09:30:31.218Z,12.20
2023-04-19T09:40:36.702Z,12.10
2023-04-19T09:50:58.515Z,12.60
2023-04-19T10:01:14.098Z,13.00
2023-04-19T10:11:20.410Z,13.10
2023-04-19T10:21:22.577Z,13.10
2023-04-19T10:31:27.142Z,13.30
2023-04-19T10:41:57.285Z,13.90
2023-04-19T10:52:00.457Z,13.80
2023-04-19T11:02:04.317Z,13.80
2023-04-19T11:12:11.201Z,14.30
2023-04-19T11:22:13.140Z,15.10
2023-04-19T11:32:16.612Z,15.40
2023-04-19T11:42:19.764Z,16.10
2023-04-19T11:52:24.462Z,16.90
2023-04-19T12:02:26.544Z,16.10
2023-04-19T12:12:48.685Z,16.60
2023-04-19T12:22:50.656Z,16.40
2023-04-19T12:32:55.540Z,16.20
2023-04-19T12:42:57.696Z,16.70
2023-04-19T12:53:01.377Z,16.40
2023-04-19T13:03:04.039Z,15.30
2023-04-19T13:13:07.482Z,15.40
2023-04-19T13:23:09.420Z,15.90
2023-04-19T13:33:12.713Z,16.00
2023-04-19T13:43:14.677Z,15.60
2023-04-19T13:53:17.987Z,15.40
2023-04-19T14:03:20.101Z,15.20
2023-04-19T14:13:23.575Z,15.10
2023-04-19T14:23:25.533Z,15.00
2023-04-19T14:33:28.891Z,15.00
2023-04-19T14:43:30.958Z,15.00
2023-04-19T14:53:34.285Z,14.90
2023-04-19T15:03:36.441Z,15.00
2023-04-19T15:13:40.529Z,15.10
2023-04-19T15:23:42.455Z,14.70
2023-04-19T15:33:45.845Z,15.00
2023-04-19T15:43:47.819Z,14.60
2023-04-19T15:53:51.224Z,14.60
2023-04-19T16:03:53.487Z,14.40
2023-04-19T16:13:57.053Z,14.40
2023-04-19T16:23:59.028Z,14.20
2023-04-19T16:34:02.364Z,13.70
2023-04-19T16:44:04.617Z,13.80
2023-04-19T16:54:07.964Z,13.30
2023-04-19T17:04:10.062Z,13.20
2023-04-19T17:14:13.456Z,13.10
2023-04-19T17:24:15.376Z,12.90
2023-04-19T17:34:18.709Z,12.60
2023-04-19T17:44:20.738Z,12.30
2023-04-19T17:54:24.091Z,12.10
2023-04-19T18:04:26.337Z,11.80
2023-04-19T18:14:29.783Z,11.60
2023-04-19T18:24:32.561Z,11.30
2023-04-19T18:34:35.927Z,11.10
2023-04-19T18:44:53.151Z,11.00
2023-04-19T18:54:57.767Z,10.80
2023-04-19T19:05:01.960Z,10.70
2023-04-19T19:15:07.326Z,10.50
2023-04-19T19:25:10.607Z,10.40
2023-04-19T19:35:14.126Z,10.20
2023-04-19T19:45:18.304Z,10.00
2023-04-19T19:55:22.810Z,9.90
2023-04-19T20:05:25.297Z,9.60
2023-04-19T20:15:29.025Z,9.50
2023-04-19T20:25:30.940Z,9.40
2023-04-19T20:35:34.293Z,9.30
2023-04-19T20:45:36.235Z,9.10
2023-04-19T20:55:39.780Z,9.00
2023-04-19T21:05:41.735Z,8.80
2023-04-19T21:15:45.026Z,8.80
2023-04-19T21:25:46.943Z,8.70
2023-04-19T21:35:50.245Z,8.60
2023-04-19T21:45:52.176Z,8.60
2023-04-19T21:55:55.586Z,8.40
2023-04-19T22:05:57.518Z,8.20
2023-04-19T22:16:00.877Z,8.10
2023-04-19T22:26:03.272Z,8.00
2023-04-19T22:36:07.689Z,8.00
2023-04-19T22:46:09.800Z,7.90
2023-04-19T22:56:13.178Z,7.80
2023-04-19T23:06:15.189Z,7.80
2023-04-19T23:16:18.597Z,7.70
2023-04-19T23:26:20.617Z,7.70
2023-04-19T23:36:23.909Z,7.70
2023-04-19T23:46:25.833Z,7.50
2023-04-19T23:56:29.191Z,7.40
